Time,TemperatureF,DewpointF,PressureIn,WindDirection,WindDirectionDegrees,WindSpeedMPH,WindSpeedGustMPH,Humidity,HourlyPrecipIn,Conditions,Clouds,dailyrainin,SolarRadiationWatts/m^2,SoftwareType,DateUTC
2013-11-17 00:12:00,43.2,42.0,30.29,SW,227,4.0,-999.0,94,-99.99,,,0.00,0,weatherlink.com 1.10,2013-11-17 05:12:00,
2013-11-17 00:26:00,44.2,43.0,30.29,SW,224,4.0,-999.0,94,-99.99,,,0.00,0,weatherlink.com 1.10,2013-11-17 05:26:00,
2013-11-17 00:41:00,44.8,43.0,30.28,SW,217,4.0,-999.0,94,-99.99,,,0.00,0,weatherlink.com 1.10,2013-11-17 05:41:00,
2013-11-17 00:56:00,43.3,42.0,30.28,SSE,155,4.0,-999.0,93,-99.99,,,0.00,0,weatherlink.com 1.10,2013-11-17 05:56:00,
2013-11-17 01:14:00,42.1,40.0,30.29,SW,223,4.0,-999.0,93,-99.99,,,0.00,0,weatherlink.com 1.10,2013-11-17 06:14:00,
2013-11-17 01:26:00,40.7,39.0,30.29,SW,227,2.0,-999.0,93,-99.99,,,0.00,0,weatherlink.com 1.10,2013-11-17 06:26:00,
2013-11-17 01:41:00,40.6,39.0,30.29,SW,219,3.0,-999.0,94,-99.99,,,0.00,0,weatherlink.com 1.10,2013-11-17 06:41:00,
2013-11-17 01:56:00,40.5,39.0,30.28,SW,219,3.0,-999.0,94,-99.99,,,0.00,0,weatherlink.com 1.10,2013-11-17 06:56:00,
2013-11-17 02:12:00,40.6,39.0,30.27,SSW,213,3.0,-999.0,94,-99.99,,,0.00,0,weatherlink.com 1.10,2013-11-17 07:12:00,
2013-11-17 02:26:00,39.8,38.0,30.27,SW,215,5.0,-999.0,94,-99.99,,,0.00,0,weatherlink.com 1.10,2013-11-17 07:26:00,
2013-11-17 02:41:00,39.5,38.0,30.27,SW,224,1.0,-999.0,95,-99.99,,,0.00,0,weatherlink.com 1.10,2013-11-17 07:41:00,
2013-11-17 02:56:00,41.7,40.0,30.27,NW,305,3.0,-999.0,95,-99.99,,,0.00,0,weatherlink.com 1.10,2013-11-17 07:56:00,
2013-11-17 03:12:00,42.8,42.0,30.27,WNW,294,5.0,-999.0,95,-99.99,,,0.00,0,weatherlink.com 1.10,2013-11-17 08:12:00,
2013-11-17 03:26:00,41.3,40.0,30.27,WNW,284,0.0,-999.0,94,-99.99,,,0.00,0,weatherlink.com 1.10,2013-11-17 08:26:00,
2013-11-17 03:41:00,40.7,39.0,30.27,WSW,238,1.0,-999.0,95,-99.99,,,0.00,0,weatherlink.com 1.10,2013-11-17 08:41:00,
2013-11-17 03:56:00,39.9,39.0,30.27,SW,226,2.0,-999.0,95,-99.99,,,0.00,0,weatherlink.com 1.10,2013-11-17 08:56:00,
2013-11-17 04:12:00,40.0,39.0,30.27,SSW,202,4.0,-999.0,95,-99.99,,,0.00,0,weatherlink.com 1.10,2013-11-17 09:12:00,
2013-11-17 04:26:00,39.5,38.0,30.27,SSW,209,3.0,-999.0,95,-99.99,,,0.00,0,weatherlink.com 1.10,2013-11-17 09:26:00,
2013-11-17 04:41:00,39.4,38.0,30.27,SW,235,3.0,-999.0,95,-99.99,,,0.00,0,weatherlink.com 1.10,2013-11-17 09:41:00,
2013-11-17 04:56:00,40.2,39.0,30.27,SW,216,5.0,-999.0,95,-99.99,,,0.00,0,weatherlink.com 1.10,2013-11-17 09:56:00,
2013-11-17 05:12:00,40.1,39.0,30.28,SW,220,7.0,-999.0,95,-99.99,,,0.00,0,weatherlink.com 1.10,2013-11-17 10:12:00,
2013-11-17 05:26:00,39.8,39.0,30.29,SW,218,5.0,-999.0,95,-99.99,,,0.00,0,weatherlink.com 1.10,2013-11-17 10:26:00,
2013-11-17 05:41:00,41.9,41.0,30.29,SW,230,3.0,-999.0,96,-99.99,,,0.00,0,weatherlink.com 1.10,2013-11-17 10:41:00,
2013-11-17 05:56:00,43.6,43.0,30.29,SW,223,3.0,-999.0,96,-99.99,,,0.00,0,weatherlink.com 1.10,2013-11-17 10:56:00,
2013-11-17 06:12:00,43.7,43.0,30.28,SW,223,0.0,-999.0,96,-99.99,,,0.00,0,weatherlink.com 1.10,2013-11-17 11:12:00,
2013-11-17 06:26:00,42.9,42.0,30.29,SSE,157,2.0,-999.0,95,-99.99,,,0.00,0,weatherlink.com 1.10,2013-11-17 11:26:00,
2013-11-17 06:41:00,41.5,40.0,30.28,SSW,197,2.0,-999.0,95,-99.99,,,0.00,9,weatherlink.com 1.10,2013-11-17 11:41:00,
2013-11-17 06:56:00,42.7,42.0,30.27,SSW,213,0.0,-999.0,96,-99.99,,,0.00,11,weatherlink.com 1.10,2013-11-17 11:56:00,
2013-11-17 07:12:00,44.0,43.0,30.26,NNW,335,2.0,-999.0,96,-99.99,,,0.00,26,weatherlink.com 1.10,2013-11-17 12:12:00,
2013-11-17 07:26:00,44.8,44.0,30.27,NNW,334,1.0,-999.0,96,-99.99,,,0.00,54,weatherlink.com 1.10,2013-11-17 12:26:00,
2013-11-17 07:41:00,45.2,44.0,30.27,NNW,334,0.0,-999.0,96,-99.99,,,0.00,30,weatherlink.com 1.10,2013-11-17 12:41:00,
2013-11-17 07:56:00,45.1,44.0,30.27,SSW,202,3.0,-999.0,95,-99.99,,,0.00,62,weatherlink.com 1.10,2013-11-17 12:56:00,
2013-11-17 08:12:00,44.3,43.0,30.27,SW,235,0.0,-999.0,96,-99.99,,,0.00,135,weatherlink.com 1.10,2013-11-17 13:12:00,
2013-11-17 08:26:00,44.8,44.0,30.26,SW,235,1.0,-999.0,96,-99.99,,,0.00,63,weatherlink.com 1.10,2013-11-17 13:26:00,
2013-11-17 08:41:00,46.7,46.0,30.26,North,5,2.0,-999.0,96,-99.99,,,0.00,70,weatherlink.com 1.10,2013-11-17 13:41:00,
2013-11-17 08:57:00,48.2,47.0,30.27,NNW,346,0.0,-999.0,96,-99.99,,,0.00,56,weatherlink.com 1.10,2013-11-17 13:57:00,
2013-11-17 09:13:00,49.3,48.0,30.26,NNE,18,4.0,-999.0,96,-99.99,,,0.00,123,weatherlink.com 1.10,2013-11-17 14:13:00,
2013-11-17 09:27:00,49.9,49.0,30.26,North,5,3.0,-999.0,96,-99.99,,,0.00,134,weatherlink.com 1.10,2013-11-17 14:27:00,
2013-11-17 09:42:00,50.4,49.0,30.26,NNE,24,3.0,-999.0,96,-99.99,,,0.00,148,weatherlink.com 1.10,2013-11-17 14:42:00,
2013-11-17 09:57:00,50.6,49.0,30.25,NNE,25,6.0,-999.0,95,-99.99,,,0.00,229,weatherlink.com 1.10,2013-11-17 14:57:00,
2013-11-17 10:13:00,51.0,50.0,30.26,NNE,17,5.0,-999.0,95,-99.99,,,0.00,483,weatherlink.com 1.10,2013-11-17 15:13:00,
2013-11-17 10:27:00,51.9,51.0,30.26,North,360,4.0,-999.0,95,-99.99,,,0.00,323,weatherlink.com 1.10,2013-11-17 15:27:00,
2013-11-17 10:42:00,51.5,50.0,30.25,North,360,3.0,-999.0,94,-99.99,,,0.00,216,weatherlink.com 1.10,2013-11-17 15:42:00,
2013-11-17 10:57:00,52.0,50.0,30.23,North,349,5.0,-999.0,92,-99.99,,,0.00,306,weatherlink.com 1.10,2013-11-17 15:57:00,
2013-11-17 11:13:00,52.2,50.0,30.22,NE,34,6.0,-999.0,91,-99.99,,,0.00,367,weatherlink.com 1.10,2013-11-17 16:13:00,
2013-11-17 11:27:00,52.3,49.0,30.21,NE,42,8.0,-999.0,89,-99.99,,,0.00,297,weatherlink.com 1.10,2013-11-17 16:27:00,
2013-11-17 11:42:00,52.1,49.0,30.20,NE,37,10.0,-999.0,89,-99.99,,,0.00,353,weatherlink.com 1.10,2013-11-17 16:42:00,
2013-11-17 11:57:00,52.2,49.0,30.20,NE,44,9.0,-999.0,88,-99.99,,,0.00,234,weatherlink.com 1.10,2013-11-17 16:57:00,
2013-11-17 12:13:00,52.4,49.0,30.19,NNE,27,9.0,-999.0,87,-99.99,,,0.00,287,weatherlink.com 1.10,2013-11-17 17:13:00,
2013-11-17 12:27:00,52.9,49.0,30.18,NNE,33,10.0,-999.0,85,-99.99,,,0.00,327,weatherlink.com 1.10,2013-11-17 17:27:00,
2013-11-17 12:42:00,53.2,48.0,30.18,NNE,28,10.0,-999.0,82,-99.99,,,0.00,285,weatherlink.com 1.10,2013-11-17 17:42:00,
2013-11-17 12:57:00,53.0,48.0,30.17,NNE,30,12.0,-999.0,83,-99.99,,,0.00,165,weatherlink.com 1.10,2013-11-17 17:57:00,
2013-11-17 13:13:00,53.2,48.0,30.17,NNE,30,13.0,-999.0,82,-99.99,,,0.00,229,weatherlink.com 1.10,2013-11-17 18:13:00,
2013-11-17 13:27:00,53.2,48.0,30.16,NE,36,12.0,-999.0,82,-99.99,,,0.00,213,weatherlink.com 1.10,2013-11-17 18:27:00,
2013-11-17 13:42:00,52.9,48.0,30.16,NE,39,11.0,-999.0,84,-99.99,,,0.00,193,weatherlink.com 1.10,2013-11-17 18:42:00,
2013-11-17 13:57:00,53.1,49.0,30.15,NNE,31,11.0,-999.0,85,-99.99,,,0.00,98,weatherlink.com 1.10,2013-11-17 18:57:00,
2013-11-17 14:13:00,53.0,49.0,30.15,NNE,28,10.0,-999.0,86,-99.99,,,0.00,90,weatherlink.com 1.10,2013-11-17 19:13:00,
2013-11-17 14:27:00,-999.0,-99.9,30.15,North,-999,-999.0,-999.0,-999,-99.99,,,0.00,,weatherlink.com 1.10,2013-11-17 19:27:00,
2013-11-17 14:42:00,-999.0,-99.9,30.14,North,-999,-999.0,-999.0,-999,-99.99,,,0.00,,weatherlink.com 1.10,2013-11-17 19:42:00,
2013-11-17 14:57:00,51.8,49.0,30.14,NE,36,11.0,-999.0,91,-99.99,,,0.00,32,weatherlink.com 1.10,2013-11-17 19:57:00,
2013-11-17 15:13:00,51.4,49.0,30.14,NNE,28,10.0,-999.0,92,-99.99,,,0.00,28,weatherlink.com 1.10,2013-11-17 20:13:00,
2013-11-17 15:27:00,51.1,50.0,30.13,NE,34,10.0,-999.0,94,-99.99,,,0.02,14,weatherlink.com 1.10,2013-11-17 20:27:00,
2013-11-17 15:42:00,51.1,50.0,30.12,NNE,28,12.0,-999.0,95,-99.99,,,0.02,11,weatherlink.com 1.10,2013-11-17 20:42:00,
2013-11-17 15:57:00,50.8,50.0,30.12,NE,34,9.0,-999.0,95,-99.99,,,0.02,0,weatherlink.com 1.10,2013-11-17 20:57:00,
2013-11-17 16:13:00,50.9,50.0,30.12,NNE,30,11.0,-999.0,95,-99.99,,,0.02,0,weatherlink.com 1.10,2013-11-17 21:13:00,
2013-11-17 16:28:00,-999.0,-99.9,30.11,North,-999,-999.0,-999.0,-999,-99.99,,,0.02,,weatherlink.com 1.10,2013-11-17 21:28:00,
2013-11-17 16:43:00,50.9,50.0,30.09,NNE,29,10.0,-999.0,96,-99.99,,,0.03,0,weatherlink.com 1.10,2013-11-17 21:43:00,
2013-11-17 16:58:00,51.0,50.0,30.09,NNE,30,9.0,-999.0,96,-99.99,,,0.03,0,weatherlink.com 1.10,2013-11-17 21:58:00,
2013-11-17 17:14:00,51.2,50.0,30.08,NNE,29,10.0,-999.0,96,-99.99,,,0.05,0,weatherlink.com 1.10,2013-11-17 22:14:00,
2013-11-17 17:28:00,51.3,50.0,30.08,NNE,31,7.0,-999.0,96,-99.99,,,0.07,0,weatherlink.com 1.10,2013-11-17 22:28:00,
2013-11-17 17:43:00,51.1,50.0,30.07,NNE,29,4.0,-999.0,96,-99.99,,,0.07,0,weatherlink.com 1.10,2013-11-17 22:43:00,
2013-11-17 17:58:00,50.9,50.0,30.06,NNE,14,4.0,-999.0,96,-99.99,,,0.07,0,weatherlink.com 1.10,2013-11-17 22:58:00,
2013-11-17 18:14:00,51.1,50.0,30.05,North,360,5.0,-999.0,96,-99.99,,,0.07,0,weatherlink.com 1.10,2013-11-17 23:14:00,
2013-11-17 18:28:00,52.0,51.0,30.04,NNE,19,5.0,-999.0,97,-99.99,,,0.07,0,weatherlink.com 1.10,2013-11-17 23:28:00,
2013-11-17 18:43:00,52.1,51.0,30.03,North,5,5.0,-999.0,97,-99.99,,,0.07,0,weatherlink.com 1.10,2013-11-17 23:43:00,
2013-11-17 18:58:00,52.0,51.0,30.03,NNE,25,5.0,-999.0,97,-99.99,,,0.07,0,weatherlink.com 1.10,2013-11-17 23:58:00,
2013-11-17 19:14:00,51.9,51.0,30.02,North,5,5.0,-999.0,97,-99.99,,,0.07,0,weatherlink.com 1.10,2013-11-18 00:14:00,
2013-11-17 19:28:00,54.0,53.0,30.01,ENE,57,4.0,-999.0,97,-99.99,,,0.07,0,weatherlink.com 1.10,2013-11-18 00:28:00,
2013-11-17 19:43:00,55.3,55.0,30.01,East,84,6.0,-999.0,97,-99.99,,,0.07,0,weatherlink.com 1.10,2013-11-18 00:43:00,
2013-11-17 19:58:00,55.0,54.0,30.00,East,84,5.0,-999.0,97,-99.99,,,0.07,0,weatherlink.com 1.10,2013-11-18 00:58:00,
2013-11-17 20:14:00,54.6,54.0,30.00,ENE,71,7.0,-999.0,97,-99.99,,,0.07,0,weatherlink.com 1.10,2013-11-18 01:14:00,
2013-11-17 20:28:00,54.6,54.0,29.99,East,81,9.0,-999.0,97,-99.99,,,0.07,0,weatherlink.com 1.10,2013-11-18 01:28:00,
2013-11-17 20:43:00,54.7,54.0,29.98,ENE,73,7.0,-999.0,97,-99.99,,,0.07,0,weatherlink.com 1.10,2013-11-18 01:43:00,
2013-11-17 20:58:00,55.3,55.0,29.97,East,80,8.0,-999.0,97,-99.99,,,0.07,0,weatherlink.com 1.10,2013-11-18 01:58:00,
2013-11-17 21:14:00,55.4,55.0,29.97,East,80,6.0,-999.0,97,-99.99,,,0.07,0,weatherlink.com 1.10,2013-11-18 02:14:00,
2013-11-17 21:28:00,55.0,54.0,29.95,East,98,6.0,-999.0,97,-99.99,,,0.07,0,weatherlink.com 1.10,2013-11-18 02:28:00,
2013-11-17 21:43:00,56.9,56.0,29.95,ESE,103,9.0,-999.0,98,-99.99,,,0.07,0,weatherlink.com 1.10,2013-11-18 02:43:00,
2013-11-17 21:58:00,56.6,56.0,29.94,ESE,107,10.0,-999.0,98,-99.99,,,0.07,0,weatherlink.com 1.10,2013-11-18 02:58:00,
2013-11-17 22:14:00,56.5,56.0,29.93,ESE,105,6.0,-999.0,98,-99.99,,,0.07,0,weatherlink.com 1.10,2013-11-18 03:14:00,
2013-11-17 22:28:00,-999.0,-99.9,29.91,North,-999,-999.0,-999.0,-999,-99.99,,,0.07,,weatherlink.com 1.10,2013-11-18 03:28:00,
2013-11-17 22:43:00,-999.0,-99.9,29.90,North,-999,-999.0,-999.0,-999,-99.99,,,0.07,,weatherlink.com 1.10,2013-11-18 03:43:00,
2013-11-17 22:58:00,56.8,56.0,29.89,ESE,104,7.0,-999.0,98,-99.99,,,0.07,0,weatherlink.com 1.10,2013-11-18 03:58:00,
2013-11-17 23:14:00,57.1,57.0,29.89,ESE,103,7.0,-999.0,98,-99.99,,,0.07,0,weatherlink.com 1.10,2013-11-18 04:14:00,
2013-11-17 23:28:00,57.6,57.0,29.87,ESE,111,8.0,-999.0,98,-99.99,,,0.07,0,weatherlink.com 1.10,2013-11-18 04:28:00,
2013-11-17 23:44:00,57.7,57.0,29.86,East,100,9.0,-999.0,98,-99.99,,,0.07,0,weatherlink.com 1.10,2013-11-18 04:44:00,
2013-11-17 23:59:00,56.9,56.0,29.84,East,96,6.0,-999.0,98,-99.99,,,0.07,0,weatherlink.com 1.10,2013-11-18 04:59:00,